Filia Ariea — PIET — position and weather

sailwx.info

Track history (hours):
 
Tides and Currents Weather Stations Pressure Air Temp Water Temp Dewpoint Dewpoint Depression Visibility Wind Speed Wind Dir Waves Ship Positions

Filia Ariea

Last reported at 2016-Dec-06 11:26 UTC. Time now 2016-Dec-06 12:11 UTC.
Position N 51°42' E 004°37'.

Length 90 m; draft 3.3 m.

Type: Cargo ship. MMSI: 244662000.

Date/timePositionNaut miles runAvg speedWind from/ knotsBaromVisibWave heightAir tempDewpointWater temp
2016-Dec-06 11:26N 51°42' E 004°37'0 0.0
2016-Dec-06 09:22N 51°42' E 004°37'0 0.0
2016-Dec-06 07:15N 51°42' E 004°37'0 0.2
2016-Dec-06 06:34N 51°42' E 004°37'7 6.7
2016-Dec-06 05:33N 51°48' E 004°36'9 8.6
2016-Dec-06 04:33N 51°51' E 004°22'8 7.8
2016-Dec-06 03:34N 51°56' E 004°13'8 8.1
2016-Dec-06 02:33N 51°60' E 004°02'8 7.7
2016-Dec-06 01:33N 51°58' E 003°49'8 7.9
2016-Dec-06 00:33N 51°57' E 003°37'8 7.9
2016-Dec-05 23:33N 51°54' E 003°24'8 7.8
2016-Dec-05 22:33N 51°48' E 003°17'9 8.6
2016-Dec-05 21:33N 51°39' E 003°20'1111.6
2016-Dec-05 20:34N 51°29' E 003°29'1211.9
2016-Dec-05 19:33N 51°22' E 003°44'9 8.7
2016-Dec-05 18:33N 51°25' E 003°58'6 6.0
2016-Dec-05 17:33N 51°21' E 003°51'9 9.3
2016-Dec-05 16:33N 51°27' E 003°40'1 1.1
2016-Dec-05 15:29N 51°28' E 003°42'0 0.0
2016-Dec-05 14:28N 51°28' E 003°42'0 0.0
2016-Dec-05 13:16N 51°28' E 003°42'0 0.0
2016-Dec-05 12:34N 51°28' E 003°42'0 0.0
2016-Dec-05 11:27N 51°28' E 003°42'0 0.0
2016-Dec-05 10:33N 51°28' E 003°42'0 0.0
2016-Dec-05 09:32N 51°28' E 003°42'0 0.0
2016-Dec-05 08:32N 51°28' E 003°42'0 0.0
2016-Dec-05 07:28N 51°28' E 003°42'0 0.0
2016-Dec-05 06:31N 51°28' E 003°42'0 0.0
2016-Dec-05 05:31N 51°28' E 003°42'0 0.0
2016-Dec-05 04:30N 51°28' E 003°42'0 0.0
2016-Dec-05 03:30N 51°28' E 003°42'0 0.0
2016-Dec-05 02:29N 51°28' E 003°42'0 0.0
2016-Dec-05 01:29N 51°28' E 003°42'0 0.0
2016-Dec-05 00:28N 51°28' E 003°42'0 0.0
2016-Dec-04 23:28N 51°28' E 003°42'0 0.0
2016-Dec-04 22:27N 51°28' E 003°42'0 0.0
2016-Dec-04 21:33N 51°28' E 003°42'0 0.0
2016-Dec-04 20:30N 51°28' E 003°42'0 0.0
2016-Dec-04 19:32N 51°28' E 003°42'0 0.0
2016-Dec-04 18:33N 51°28' E 003°42'0 0.0
2016-Dec-04 17:32N 51°28' E 003°42'0 0.0
2016-Dec-04 16:32N 51°28' E 003°42'0 0.0
2016-Dec-04 15:31N 51°28' E 003°42'0 0.0
2016-Dec-04 14:31N 51°28' E 003°42'0 0.0
2016-Dec-04 13:31N 51°28' E 003°42'0 0.0
2016-Dec-04 12:30N 51°28' E 003°42'0 0.0
2016-Dec-04 11:30N 51°28' E 003°42'0 0.0
2016-Dec-04 10:32N 51°28' E 003°42'0 0.0
2016-Dec-04 09:29N 51°28' E 003°42'0 0.0
2016-Dec-04 08:28N 51°28' E 003°42'0 0.0
2016-Dec-04 07:28N 51°28' E 003°42'0 0.0
2016-Dec-04 06:33N 51°28' E 003°42'0 0.0
2016-Dec-04 05:27N 51°28' E 003°42'0 0.0
2016-Dec-04 04:27N 51°28' E 003°42'0 0.0
2016-Dec-04 03:32N 51°28' E 003°42'0 0.0
2016-Dec-04 02:32N 51°28' E 003°42'0 0.0
2016-Dec-04 01:31N 51°28' E 003°42'0 0.0
2016-Dec-04 00:31N 51°28' E 003°42'0 0.0
2016-Dec-03 23:30N 51°28' E 003°42'0 0.0
2016-Dec-03 22:30N 51°28' E 003°42'0 0.0
2016-Dec-03 21:33N 51°28' E 003°42'0 0.0
2016-Dec-03 20:29N 51°28' E 003°42'0 0.0
2016-Dec-03 19:29N 51°28' E 003°42'0 0.0
2016-Dec-03 18:10N 51°28' E 003°42'0 0.0
2016-Dec-03 17:28N 51°28' E 003°42'0 0.0
2016-Dec-03 16:34N 51°28' E 003°42'0 0.0
2016-Dec-03 15:30N 51°28' E 003°42'0 0.0
2016-Dec-03 14:33N 51°28' E 003°42'0 0.0
2016-Dec-03 13:32N 51°28' E 003°42'0 0.0
2016-Dec-03 12:32N 51°28' E 003°42'0 0.0
2016-Dec-03 11:31N 51°28' E 003°42'0 0.0
2016-Dec-03 10:31N 51°28' E 003°42'0 0.0
2016-Dec-03 09:30N 51°28' E 003°42'0 0.0
2016-Dec-03 08:30N 51°28' E 003°42'0 0.0
2016-Dec-03 07:30N 51°28' E 003°42'0 0.0
2016-Dec-03 06:29N 51°28' E 003°42'0 0.0
2016-Dec-03 05:29N 51°28' E 003°42'0 0.0
2016-Dec-03 04:22N 51°28' E 003°42'0 0.0
2016-Dec-03 03:31N 51°28' E 003°42'0 0.0
2016-Dec-03 02:33N 51°28' E 003°42'0 0.0
2016-Dec-03 01:30N 51°28' E 003°42'0 0.0
2016-Dec-03 00:33N 51°28' E 003°42'0 0.0
2016-Dec-02 23:32N 51°28' E 003°42'0 0.0
2016-Dec-02 22:26N 51°28' E 003°42'0 0.0
2016-Dec-02 21:33N 51°28' E 003°42'6 5.7
2016-Dec-02 20:33N 51°25' E 003°33'9 8.8
2016-Dec-02 19:33N 51°24' E 003°20'9 8.7
2016-Dec-02 18:33N 51°22' E 003°06'1010.0
2016-Dec-02 17:33N 51°22' E 002°50'1010.5
2016-Dec-02 16:33N 51°22' E 002°33'1212.0
2016-Dec-02 15:33N 51°17' E 002°16'1010.1
2016-Dec-02 14:33N 51°12' E 002°02'9 9.1
2016-Dec-02 13:33N 51°07' E 001°49'109 9.0
2016-Dec-02 01:27N 50°13' W 000°39'8 8.9
2016-Dec-02 00:33N 50°10' W 000°51'1010.3
2016-Dec-01 23:33N 50°07' W 001°06'1211.7
2016-Dec-01 22:33N 50°04' W 001°24'1312.8
2016-Dec-01 21:33N 50°00' W 001°43'1413.4
2016-Dec-01 20:33N 49°57' W 002°04'1612.6
2016-Dec-01 19:15N 49°52' W 002°28'94 9.6
2016-Dec-01 09:29N 49°00' W 004°28'9 8.8
2016-Dec-01 08:31N 48°55' W 004°38'9 9.4
2016-Dec-01 07:33N 48°50' W 004°49'1010.1
2016-Dec-01 06:33N 48°44' W 005°01'1110.8
2016-Dec-01 05:33N 48°37' W 005°14'1111.2
2016-Dec-01 04:33N 48°28' W 005°24'277 9.5
2016-Nov-29 23:30N 43°51' W 005°56'  
Track history (hours):
 
Tides and Currents Weather Stations Pressure Air Temp Water Temp Dewpoint Dewpoint Depression Visibility Wind Speed Wind Dir Waves Ship Positions

Filia Ariea

Last reported at 2016-Dec-06 11:26 UTC. Time now 2016-Dec-06 12:11 UTC.
Position N 51°42' E 004°37'.

Length 90 m; draft 3.3 m.

Type: Cargo ship. MMSI: 244662000.

Date/timePositionNaut miles runAvg speedWind from/ knotsBaromVisibWave heightAir tempDewpointWater temp
2016-Dec-06 11:26N 51°42' E 004°37'0 0.0
2016-Dec-06 09:22N 51°42' E 004°37'0 0.0
2016-Dec-06 07:15N 51°42' E 004°37'0 0.2
2016-Dec-06 06:34N 51°42' E 004°37'7 6.7
2016-Dec-06 05:33N 51°48' E 004°36'9 8.6
2016-Dec-06 04:33N 51°51' E 004°22'8 7.8
2016-Dec-06 03:34N 51°56' E 004°13'8 8.1
2016-Dec-06 02:33N 51°60' E 004°02'8 7.7
2016-Dec-06 01:33N 51°58' E 003°49'8 7.9
2016-Dec-06 00:33N 51°57' E 003°37'8 7.9
2016-Dec-05 23:33N 51°54' E 003°24'8 7.8
2016-Dec-05 22:33N 51°48' E 003°17'9 8.6
2016-Dec-05 21:33N 51°39' E 003°20'1111.6
2016-Dec-05 20:34N 51°29' E 003°29'1211.9
2016-Dec-05 19:33N 51°22' E 003°44'9 8.7
2016-Dec-05 18:33N 51°25' E 003°58'6 6.0
2016-Dec-05 17:33N 51°21' E 003°51'9 9.3
2016-Dec-05 16:33N 51°27' E 003°40'1 1.1
2016-Dec-05 15:29N 51°28' E 003°42'0 0.0
2016-Dec-05 14:28N 51°28' E 003°42'0 0.0
2016-Dec-05 13:16N 51°28' E 003°42'0 0.0
2016-Dec-05 12:34N 51°28' E 003°42'0 0.0
2016-Dec-05 11:27N 51°28' E 003°42'0 0.0
2016-Dec-05 10:33N 51°28' E 003°42'0 0.0
2016-Dec-05 09:32N 51°28' E 003°42'0 0.0
2016-Dec-05 08:32N 51°28' E 003°42'0 0.0
2016-Dec-05 07:28N 51°28' E 003°42'0 0.0
2016-Dec-05 06:31N 51°28' E 003°42'0 0.0
2016-Dec-05 05:31N 51°28' E 003°42'0 0.0
2016-Dec-05 04:30N 51°28' E 003°42'0 0.0
2016-Dec-05 03:30N 51°28' E 003°42'0 0.0
2016-Dec-05 02:29N 51°28' E 003°42'0 0.0
2016-Dec-05 01:29N 51°28' E 003°42'0 0.0
2016-Dec-05 00:28N 51°28' E 003°42'0 0.0
2016-Dec-04 23:28N 51°28' E 003°42'0 0.0
2016-Dec-04 22:27N 51°28' E 003°42'0 0.0
2016-Dec-04 21:33N 51°28' E 003°42'0 0.0
2016-Dec-04 20:30N 51°28' E 003°42'0 0.0
2016-Dec-04 19:32N 51°28' E 003°42'0 0.0
2016-Dec-04 18:33N 51°28' E 003°42'0 0.0
2016-Dec-04 17:32N 51°28' E 003°42'0 0.0
2016-Dec-04 16:32N 51°28' E 003°42'0 0.0
2016-Dec-04 15:31N 51°28' E 003°42'0 0.0
2016-Dec-04 14:31N 51°28' E 003°42'0 0.0
2016-Dec-04 13:31N 51°28' E 003°42'0 0.0
2016-Dec-04 12:30N 51°28' E 003°42'0 0.0
2016-Dec-04 11:30N 51°28' E 003°42'0 0.0
2016-Dec-04 10:32N 51°28' E 003°42'0 0.0
2016-Dec-04 09:29N 51°28' E 003°42'0 0.0
2016-Dec-04 08:28N 51°28' E 003°42'0 0.0
2016-Dec-04 07:28N 51°28' E 003°42'0 0.0
2016-Dec-04 06:33N 51°28' E 003°42'0 0.0
2016-Dec-04 05:27N 51°28' E 003°42'0 0.0
2016-Dec-04 04:27N 51°28' E 003°42'0 0.0
2016-Dec-04 03:32N 51°28' E 003°42'0 0.0
2016-Dec-04 02:32N 51°28' E 003°42'0 0.0
2016-Dec-04 01:31N 51°28' E 003°42'0 0.0
2016-Dec-04 00:31N 51°28' E 003°42'0 0.0
2016-Dec-03 23:30N 51°28' E 003°42'0 0.0
2016-Dec-03 22:30N 51°28' E 003°42'0 0.0
2016-Dec-03 21:33N 51°28' E 003°42'0 0.0
2016-Dec-03 20:29N 51°28' E 003°42'0 0.0
2016-Dec-03 19:29N 51°28' E 003°42'0 0.0
2016-Dec-03 18:10N 51°28' E 003°42'0 0.0
2016-Dec-03 17:28N 51°28' E 003°42'0 0.0
2016-Dec-03 16:34N 51°28' E 003°42'0 0.0
2016-Dec-03 15:30N 51°28' E 003°42'0 0.0
2016-Dec-03 14:33N 51°28' E 003°42'0 0.0
2016-Dec-03 13:32N 51°28' E 003°42'0 0.0
2016-Dec-03 12:32N 51°28' E 003°42'0 0.0
2016-Dec-03 11:31N 51°28' E 003°42'0 0.0
2016-Dec-03 10:31N 51°28' E 003°42'0 0.0
2016-Dec-03 09:30N 51°28' E 003°42'0 0.0
2016-Dec-03 08:30N 51°28' E 003°42'0 0.0
2016-Dec-03 07:30N 51°28' E 003°42'0 0.0
2016-Dec-03 06:29N 51°28' E 003°42'0 0.0
2016-Dec-03 05:29N 51°28' E 003°42'0 0.0
2016-Dec-03 04:22N 51°28' E 003°42'0 0.0
2016-Dec-03 03:31N 51°28' E 003°42'0 0.0
2016-Dec-03 02:33N 51°28' E 003°42'0 0.0
2016-Dec-03 01:30N 51°28' E 003°42'0 0.0
2016-Dec-03 00:33N 51°28' E 003°42'0 0.0
2016-Dec-02 23:32N 51°28' E 003°42'0 0.0
2016-Dec-02 22:26N 51°28' E 003°42'0 0.0
2016-Dec-02 21:33N 51°28' E 003°42'6 5.7
2016-Dec-02 20:33N 51°25' E 003°33'9 8.8
2016-Dec-02 19:33N 51°24' E 003°20'9 8.7
2016-Dec-02 18:33N 51°22' E 003°06'1010.0
2016-Dec-02 17:33N 51°22' E 002°50'1010.5
2016-Dec-02 16:33N 51°22' E 002°33'1212.0
2016-Dec-02 15:33N 51°17' E 002°16'1010.1
2016-Dec-02 14:33N 51°12' E 002°02'9 9.1
2016-Dec-02 13:33N 51°07' E 001°49'109 9.0
2016-Dec-02 01:27N 50°13' W 000°39'8 8.9
2016-Dec-02 00:33N 50°10' W 000°51'1010.3
2016-Dec-01 23:33N 50°07' W 001°06'1211.7
2016-Dec-01 22:33N 50°04' W 001°24'1312.8
2016-Dec-01 21:33N 50°00' W 001°43'1413.4
2016-Dec-01 20:33N 49°57' W 002°04'1612.6
2016-Dec-01 19:15N 49°52' W 002°28'94 9.6
2016-Dec-01 09:29N 49°00' W 004°28'9 8.8
2016-Dec-01 08:31N 48°55' W 004°38'9 9.4
2016-Dec-01 07:33N 48°50' W 004°49'1010.1
2016-Dec-01 06:33N 48°44' W 005°01'1110.8
2016-Dec-01 05:33N 48°37' W 005°14'1111.2
2016-Dec-01 04:33N 48°28' W 005°24'277 9.5
2016-Nov-29 23:30N 43°51' W 005°56'  

Dump ship's entire track history